This is the latest recevied weather packets stored in our database for station/object G6LTT. If no packets are shown the sender has not sent any weather packets the latest 10 day(s).
| Time | Temp. | Humidity | Pressure | Rain* | Wind** | Luminosity | Snow |
|---|---|---|---|---|---|---|---|
| 1777776848 | 12.78° C | 84% | 1037.7 hPa | 0 mm | - | - | - |
| 1777771083 | 13.33° C | 87% | 1038.2 hPa | 0 mm | - | - | - |
| 1777769643 | 13.33° C | 86% | 1038.3 hPa | 0 mm | - | - | - |
| 1777764423 | 13.89° C | 85% | 1039 hPa | 0 mm | - | - | - |
| 1777762803 | 13.89° C | 84% | 1039.2 hPa | 0 mm | - | - | - |
| 1777760823 | 14.44° C | 83% | 1039.2 hPa | 0 mm | - | - | - |
| 1777760283 | 14.44° C | 83% | 1039 hPa | 0 mm | - | - | - |
| 1777759743 | 14.44° C | 82% | 1039.2 hPa | 0 mm | - | - | - |
| 1777758843 | 14.44° C | 82% | 1039 hPa | 0 mm | - | - | - |
| 1777754295 | 15.56° C | 79% | 1039.3 hPa | 0 mm | - | - | - |
| 1777750563 | 15.56° C | 79% | 1039.7 hPa | 0 mm | - | - | - |
| 1777745883 | 15° C | 84% | 1040 hPa | 0.25 mm | - | - | - |
| 1777744803 | 15° C | 85% | 1040.1 hPa | 0.25 mm | - | - | - |
| 1777743903 | 15° C | 84% | 1040.1 hPa | 0.51 mm | - | - | - |
| 1777742283 | 15.56° C | 79% | 1040.8 hPa | 0.25 mm | - | - | - |
| 1777739763 | 20.56° C | 46% | 1040.3 hPa | 0 mm | - | - | - |
| 1777739223 | 21.11° C | 45% | 1040.4 hPa | 0 mm | - | - | - |
| 1777724823 | 20.56° C | 41% | 1043.8 hPa | 0 mm | - | - | - |
| 1777724283 | 20.56° C | 41% | 1043.8 hPa | 0 mm | - | - | - |
| 1777719243 | 18.33° C | 54% | 1045.3 hPa | 0 mm | - | - | - |
| 1777712537 | 15° C | 68% | 1046.2 hPa | 0 mm | - | - | - |
| 1777712043 | 15° C | 68% | 1046.3 hPa | 0 mm | - | - | - |
| 1777710423 | 14.44° C | 72% | 1046.6 hPa | 0 mm | - | - | - |
| 1777707363 | 12.22° C | 80% | 1046.3 hPa | 0 mm | - | - | - |
| 1777706283 | 11.67° C | 82% | 1046.8 hPa | 0 mm | - | - | - |
* Rain latest hour (hover to see other rain measurements)
** Current wind speed in m/s (hover to see current wind gust speed)